createdAt,value
2023-01-10T00:02:47.149Z,2.35
2023-01-10T00:07:10.948Z,3.10
2023-01-10T00:11:52.326Z,2.60
2023-01-10T00:16:16.211Z,2.25
2023-01-10T00:20:42.564Z,2.40
2023-01-10T00:25:07.597Z,1.90
2023-01-10T00:29:32.064Z,2.65
2023-01-10T00:33:56.025Z,2.83
2023-01-10T00:38:21.192Z,3.57
2023-01-10T00:43:02.711Z,2.30
2023-01-10T00:47:26.587Z,2.20
2023-01-10T00:51:50.613Z,2.00
2023-01-10T00:56:15.939Z,2.67
2023-01-10T01:00:39.987Z,1.92
2023-01-10T01:05:03.889Z,2.38
2023-01-10T01:09:27.857Z,2.27
2023-01-10T01:13:53.112Z,3.35
2023-01-10T01:18:20.736Z,2.67
2023-01-10T01:22:44.630Z,3.30
2023-01-10T01:27:08.550Z,3.22
2023-01-10T01:31:33.771Z,3.58
2023-01-10T01:35:57.902Z,3.55
2023-01-10T01:40:23.519Z,3.53
2023-01-10T01:44:47.688Z,3.30
2023-01-10T01:49:17.671Z,3.88
2023-01-10T01:53:44.860Z,3.50
2023-01-10T01:58:14.272Z,3.58
2023-01-10T02:02:51.155Z,4.07
2023-01-10T02:07:25.302Z,4.53
2023-01-10T02:11:50.055Z,4.03
2023-01-10T02:16:14.114Z,4.45
2023-01-10T02:20:50.706Z,4.55
2023-01-10T02:25:45.344Z,4.33
2023-01-10T02:30:41.750Z,4.72
2023-01-10T02:35:17.883Z,4.45
2023-01-10T02:39:51.062Z,4.30
2023-01-10T02:44:21.291Z,5.55
2023-01-10T02:48:45.074Z,4.10
2023-01-10T02:53:12.676Z,4.07
2023-01-10T02:57:45.716Z,4.20
2023-01-10T03:02:11.823Z,2.90
2023-01-10T03:06:36.594Z,2.58
2023-01-10T03:11:00.004Z,3.17
2023-01-10T03:15:20.618Z,3.80
2023-01-10T03:19:50.433Z,2.65
2023-01-10T03:24:13.261Z,4.20
2023-01-10T03:28:39.210Z,3.38
2023-01-10T03:32:59.652Z,3.17
2023-01-10T03:37:35.792Z,4.17
2023-01-10T03:42:10.619Z,3.90
2023-01-10T03:46:43.239Z,4.10
2023-01-10T03:51:09.458Z,3.53
2023-01-10T03:55:35.122Z,4.40
2023-01-10T04:00:00.235Z,3.85
2023-01-10T04:04:25.481Z,2.90
2023-01-10T04:08:49.262Z,4.27
2023-01-10T04:13:13.082Z,3.83
2023-01-10T04:17:36.987Z,3.80
2023-01-10T04:22:02.140Z,3.77
2023-01-10T04:26:26.117Z,3.22
2023-01-10T04:30:49.937Z,3.75
2023-01-10T04:35:13.939Z,4.30
2023-01-10T04:39:39.568Z,3.50
2023-01-10T04:44:03.396Z,3.97
2023-01-10T04:48:27.634Z,4.32
2023-01-10T04:52:51.378Z,3.47
2023-01-10T04:57:17.093Z,4.50
2023-01-10T05:01:41.387Z,3.25
2023-01-10T05:06:05.808Z,4.10
2023-01-10T05:10:29.663Z,4.18
2023-01-10T05:14:54.841Z,4.55
2023-01-10T05:19:18.680Z,4.57
2023-01-10T05:23:42.819Z,4.13
2023-01-10T05:28:06.792Z,4.30
2023-01-10T05:32:32.085Z,4.60
2023-01-10T05:36:56.131Z,3.90
2023-01-10T05:41:20.125Z,3.35
2023-01-10T05:45:44.953Z,4.28
2023-01-10T05:50:11.948Z,2.97
2023-01-10T05:54:35.871Z,3.40
2023-01-10T05:59:07.752Z,3.25
2023-01-10T06:03:33.655Z,4.10
2023-01-10T06:07:59.342Z,3.20
2023-01-10T06:12:23.315Z,4.63
2023-01-10T06:16:48.008Z,3.15
2023-01-10T06:21:11.826Z,4.40
2023-01-10T06:25:40.532Z,3.70
2023-01-10T06:30:05.062Z,3.22
2023-01-10T06:34:28.888Z,3.50
2023-01-10T06:38:52.717Z,3.20
2023-01-10T06:43:17.908Z,4.25
2023-01-10T06:47:41.722Z,4.35
2023-01-10T06:52:05.989Z,3.47
2023-01-10T06:56:29.789Z,3.67
2023-01-10T07:00:55.143Z,3.13
2023-01-10T07:05:19.339Z,3.27
2023-01-10T07:09:43.200Z,2.65
2023-01-10T07:14:07.064Z,3.00
2023-01-10T07:18:32.513Z,2.70
2023-01-10T07:22:57.148Z,2.70
2023-01-10T07:27:20.944Z,2.20
2023-01-10T07:31:44.769Z,1.88
2023-01-10T07:36:10.590Z,2.37
2023-01-10T07:40:34.415Z,2.60
2023-01-10T07:44:58.331Z,2.50
2023-01-10T07:49:22.188Z,2.07
2023-01-10T07:53:47.532Z,2.13
2023-01-10T07:58:11.351Z,2.22
2023-01-10T08:02:35.291Z,2.30
2023-01-10T08:06:59.098Z,2.30
2023-01-10T08:11:24.206Z,2.40
2023-01-10T08:15:50.417Z,2.55
2023-01-10T08:20:14.561Z,2.43
2023-01-10T08:24:38.388Z,2.33
2023-01-10T08:29:03.652Z,2.33
2023-01-10T08:33:27.709Z,3.23
2023-01-10T08:37:51.539Z,3.20
2023-01-10T08:42:16.623Z,3.63
2023-01-10T08:46:42.047Z,3.37
2023-01-10T08:51:10.441Z,3.10
2023-01-10T08:55:35.741Z,3.42
2023-01-10T08:59:59.906Z,3.45
2023-01-10T09:04:25.170Z,3.47
2023-01-10T09:08:49.069Z,2.90
2023-01-10T09:13:13.049Z,2.92
2023-01-10T09:17:36.919Z,3.57
2023-01-10T09:22:02.243Z,3.63
2023-01-10T09:26:26.310Z,3.30
2023-01-10T09:30:50.141Z,3.10
2023-01-10T09:35:14.110Z,2.95
2023-01-10T09:39:39.645Z,3.08
2023-01-10T09:44:06.917Z,2.97
2023-01-10T09:48:41.816Z,2.93
2023-01-10T09:53:11.402Z,2.80
2023-01-10T09:57:36.812Z,2.95
2023-01-10T10:02:05.829Z,3.30
2023-01-10T10:06:29.926Z,3.33
2023-01-10T10:11:01.968Z,2.33
2023-01-10T10:15:35.348Z,3.40
2023-01-10T10:20:17.058Z,2.80
2023-01-10T10:24:57.901Z,2.70
2023-01-10T10:29:42.232Z,2.28
2023-01-10T10:34:14.947Z,2.60
2023-01-10T10:38:43.516Z,3.00
2023-01-10T10:43:18.388Z,2.67
2023-01-10T10:47:49.994Z,3.10
2023-01-10T10:52:23.708Z,2.70
2023-01-10T10:56:48.907Z,2.90
2023-01-10T11:01:14.902Z,2.40
2023-01-10T11:05:41.806Z,2.47
2023-01-10T11:10:32.318Z,2.53
2023-01-10T11:14:56.219Z,2.25
2023-01-10T11:19:22.553Z,3.00
2023-01-10T11:23:54.118Z,2.80
2023-01-10T11:28:23.229Z,2.67
2023-01-10T11:32:53.470Z,2.20
2023-01-10T11:37:25.082Z,2.30
2023-01-10T11:41:49.429Z,2.58
2023-01-10T11:46:20.539Z,2.57
2023-01-10T11:50:50.319Z,1.98
2023-01-10T11:55:20.839Z,2.47
2023-01-10T11:59:53.742Z,2.10
2023-01-10T12:04:21.159Z,2.37
2023-01-10T12:08:45.228Z,2.45
2023-01-10T12:13:16.008Z,2.13
2023-01-10T12:17:39.934Z,2.57
2023-01-10T12:22:08.875Z,2.90
2023-01-10T12:26:33.944Z,2.53
2023-01-10T12:31:00.595Z,1.70
2023-01-10T12:35:29.054Z,2.63
2023-01-10T12:40:00.753Z,2.42
2023-01-10T12:44:28.194Z,2.20
2023-01-10T12:48:59.353Z,2.17
2023-01-10T12:53:31.321Z,1.80
2023-01-10T12:57:59.316Z,2.13
2023-01-10T13:02:27.825Z,2.53
2023-01-10T13:06:52.513Z,2.47
2023-01-10T13:11:21.622Z,3.25
2023-01-10T13:15:51.422Z,2.60
2023-01-10T13:20:29.848Z,3.28
2023-01-10T13:24:58.577Z,3.78
2023-01-10T13:29:25.160Z,3.85
2023-01-10T13:33:56.010Z,2.80
2023-01-10T13:38:23.716Z,3.60
2023-01-10T13:43:16.567Z,3.80
2023-01-10T13:48:18.610Z,2.83
2023-01-10T13:52:43.951Z,3.10
2023-01-10T13:57:40.964Z,2.05
2023-01-10T14:02:31.524Z,2.97
2023-01-10T14:06:57.407Z,3.22
2023-01-10T14:11:25.457Z,2.88
2023-01-10T14:15:50.486Z,3.08
2023-01-10T14:20:20.944Z,3.37
2023-01-10T14:24:51.505Z,2.70
2023-01-10T14:29:19.439Z,2.90
2023-01-10T14:33:59.690Z,3.20
2023-01-10T14:38:31.053Z,3.05
2023-01-10T14:42:58.554Z,3.20
2023-01-10T14:47:32.113Z,3.20
2023-01-10T14:52:17.074Z,3.08
2023-01-10T14:56:49.023Z,2.60
2023-01-10T15:01:13.934Z,3.03
2023-01-10T15:05:50.074Z,2.70
2023-01-10T15:10:23.393Z,2.92
2023-01-10T15:14:48.470Z,3.10
2023-01-10T15:19:19.125Z,2.80
2023-01-10T15:23:46.836Z,2.78
2023-01-10T15:28:16.450Z,3.30
2023-01-10T15:32:41.483Z,2.60
2023-01-10T15:37:09.055Z,2.58
2023-01-10T15:41:38.106Z,2.50
2023-01-10T15:46:05.599Z,2.10
2023-01-10T15:50:33.212Z,2.57
2023-01-10T15:54:57.872Z,2.70
2023-01-10T15:59:26.449Z,3.08
2023-01-10T16:03:52.460Z,2.63
2023-01-10T16:08:16.670Z,2.70
2023-01-10T16:12:59.921Z,3.00
2023-01-10T16:17:25.509Z,3.00
2023-01-10T16:21:57.631Z,2.65
2023-01-10T16:26:21.616Z,3.00
2023-01-10T16:30:46.862Z,2.75
2023-01-10T16:35:12.280Z,2.90
2023-01-10T16:39:36.464Z,2.60
2023-01-10T16:44:00.816Z,1.98
2023-01-10T16:48:24.779Z,3.17
2023-01-10T16:52:50.014Z,2.88
2023-01-10T16:57:14.927Z,2.70
2023-01-10T17:01:41.831Z,2.80
2023-01-10T17:06:05.992Z,2.90
2023-01-10T17:10:32.574Z,2.03
2023-01-10T17:14:56.563Z,2.30
2023-01-10T17:19:20.612Z,2.47
2023-01-10T17:23:44.919Z,2.22
2023-01-10T17:28:12.362Z,1.90
2023-01-10T17:32:36.128Z,2.53
2023-01-10T17:37:00.049Z,2.03
2023-01-10T17:41:19.137Z,2.50
2023-01-10T17:45:42.016Z,2.10
2023-01-10T17:50:01.419Z,1.60
2023-01-10T17:54:25.752Z,2.00
2023-01-10T17:58:51.584Z,1.90
2023-01-10T18:03:17.309Z,2.17
2023-01-10T18:07:41.237Z,3.90
2023-01-10T18:12:05.498Z,2.95
2023-01-10T18:16:29.469Z,2.67
2023-01-10T18:20:57.413Z,2.28
2023-01-10T18:25:21.277Z,1.80
2023-01-10T18:29:45.099Z,1.80
2023-01-10T18:34:09.605Z,1.55
2023-01-10T18:38:35.631Z,1.95
2023-01-10T18:42:59.758Z,1.90
2023-01-10T18:47:23.777Z,2.00
2023-01-10T18:51:47.711Z,2.25
2023-01-10T18:56:13.688Z,3.05
2023-01-10T19:00:37.576Z,1.77
2023-01-10T19:05:01.690Z,1.92
2023-01-10T19:09:25.857Z,1.90
2023-01-10T19:13:53.886Z,2.37
2023-01-10T19:18:18.117Z,2.10
2023-01-10T19:22:42.065Z,2.88
2023-01-10T19:27:06.590Z,2.40
2023-01-10T19:31:32.114Z,2.50
2023-01-10T19:35:56.020Z,2.05
2023-01-10T19:40:20.030Z,1.75
2023-01-10T19:44:44.701Z,2.20
2023-01-10T19:49:17.512Z,1.80
2023-01-10T19:53:46.146Z,2.63
2023-01-10T19:58:10.134Z,2.53
2023-01-10T20:02:35.216Z,2.92
2023-01-10T20:07:00.564Z,2.17
2023-01-10T20:11:26.516Z,2.55
2023-01-10T20:15:50.720Z,3.17
2023-01-10T20:20:15.151Z,2.70
2023-01-10T20:24:40.837Z,2.40
2023-01-10T20:29:05.312Z,2.10
2023-01-10T20:33:29.982Z,2.42
2023-01-10T20:37:53.991Z,2.70
2023-01-10T20:42:19.362Z,1.97
2023-01-10T20:46:43.599Z,2.60
2023-01-10T20:51:08.982Z,3.03
2023-01-10T20:55:35.758Z,2.28
2023-01-10T21:00:01.011Z,2.07
2023-01-10T21:04:25.132Z,2.53
2023-01-10T21:08:50.717Z,2.60
2023-01-10T21:13:15.062Z,2.60
2023-01-10T21:17:41.958Z,2.20
2023-01-10T21:22:05.815Z,1.55
2023-01-10T21:26:29.554Z,2.43
2023-01-10T21:30:54.483Z,2.20
2023-01-10T21:35:19.788Z,2.60
2023-01-10T21:39:43.668Z,2.30
2023-01-10T21:44:08.770Z,2.03
2023-01-10T21:48:32.551Z,2.42
2023-01-10T21:52:57.922Z,2.25
2023-01-10T21:57:23.499Z,2.00
2023-01-10T22:01:47.737Z,1.92
2023-01-10T22:06:11.609Z,2.33
2023-01-10T22:10:36.962Z,1.90
2023-01-10T22:15:01.056Z,2.85
2023-01-10T22:19:25.366Z,2.53
2023-01-10T22:23:49.272Z,2.10
2023-01-10T22:28:14.787Z,2.20
2023-01-10T22:32:38.613Z,2.35
2023-01-10T22:37:03.012Z,2.22
2023-01-10T22:41:27.463Z,2.20
2023-01-10T22:45:52.624Z,1.70
2023-01-10T22:50:17.541Z,1.85
2023-01-10T22:54:41.417Z,2.77
2023-01-10T22:59:05.789Z,2.20
2023-01-10T23:03:31.102Z,2.35
2023-01-10T23:07:55.233Z,2.03
2023-01-10T23:12:19.268Z,1.60
2023-01-10T23:16:43.016Z,2.58
2023-01-10T23:21:09.012Z,2.03
2023-01-10T23:25:33.955Z,2.03
2023-01-10T23:29:57.704Z,1.70
2023-01-10T23:34:21.667Z,1.88
2023-01-10T23:38:46.886Z,2.20
2023-01-10T23:43:10.681Z,2.35
2023-01-10T23:47:34.455Z,2.20
2023-01-10T23:51:58.271Z,2.22
2023-01-10T23:56:23.712Z,1.57
